Time;durP1;ratioP1;P1;durP2;ratioP2;P2;SDS_P1;SDS_P2;PMS_P1;PMS_P2;Temp;Humidity;BMP_temperature;BMP_pressure;BME280_temperature;BME280_humidity;BME280_pressure;Samples;Min_cycle;Max_cycle;Signal;HPM_P1;HPM_P2
2020/12/19 00:00:17;;;;;;;81.20;43.10;;;;;;;5.93;89.91;101288.12;1740736;81;21605;-74
2020/12/19 00:02:43;;;;;;;79.37;43.42;;;;;;;5.95;89.84;101296.75;1740102;81;28794;-74
2020/12/19 00:05:08;;;;;;;80.80;43.17;;;;;;;5.99;89.73;101298.25;1737906;81;27103;-74
2020/12/19 00:07:34;;;;;;;81.40;44.38;;;;;;;5.83;89.77;101296.22;1746958;81;22056;-75
2020/12/19 00:10:01;;;;;;;77.17;43.40;;;;;;;5.87;90.05;101295.92;1736879;81;26778;-74
2020/12/19 00:12:26;;;;;;;81.75;43.95;;;;;;;5.85;89.89;101292.54;1745874;81;21166;-74
2020/12/19 00:14:52;;;;;;;82.90;42.45;;;;;;;5.89;89.85;101293.20;1747276;81;28385;-74
2020/12/19 00:17:18;;;;;;;81.00;44.38;;;;;;;5.80;89.76;101293.31;1738426;81;27124;-74
2020/12/19 00:19:44;;;;;;;81.47;44.08;;;;;;;5.65;90.17;101295.10;1716779;82;21892;-74
2020/12/19 00:22:09;;;;;;;83.70;45.03;;;;;;;5.61;90.40;101289.70;1721367;82;26844;-74
2020/12/19 00:24:35;;;;;;;81.57;44.60;;;;;;;5.64;90.56;101286.89;1718298;82;25278;-74
2020/12/19 00:27:01;;;;;;;81.02;45.23;;;;;;;5.72;90.48;101291.17;1722446;82;28474;-75
2020/12/19 00:29:26;;;;;;;87.53;46.02;;;;;;;5.60;90.46;101288.00;1718501;82;26830;-75
2020/12/19 00:31:52;;;;;;;85.87;45.88;;;;;;;5.45;91.02;101293.72;1712152;82;22489;-75
2020/12/19 00:34:18;;;;;;;82.35;44.60;;;;;;;5.32;91.29;101287.09;1711308;82;27324;-75
2020/12/19 00:36:44;;;;;;;83.47;46.35;;;;;;;5.31;91.39;101282.78;1716874;82;25264;-75
2020/12/19 00:39:10;;;;;;;81.30;44.73;;;;;;;5.32;91.34;101288.40;1712586;82;21152;-75
2020/12/19 00:41:36;;;;;;;84.28;45.52;;;;;;;5.36;91.10;101283.36;1716238;82;26803;-75
2020/12/19 00:44:02;;;;;;;77.12;42.98;;;;;;;5.37;91.03;101285.50;1721212;82;22006;-73
2020/12/19 00:46:28;;;;;;;80.32;42.27;;;;;;;5.44;90.75;101283.33;1715106;82;21689;-75
2020/12/19 00:48:53;;;;;;;81.42;43.95;;;;;;;5.38;90.32;101280.17;1709264;82;25758;-74
2020/12/19 00:51:21;;;;;;;82.90;44.23;;;;;;;5.43;90.23;101286.91;1725771;82;29337;-74
2020/12/19 00:53:52;;;;;;;77.97;43.15;;;;;;;5.45;89.96;101279.79;1715746;82;21205;-74
2020/12/19 00:56:22;;;;;;;81.30;43.60;;;;;;;5.39;89.87;101284.48;1710451;82;21412;-75
2020/12/19 00:58:49;;;;;;;77.67;42.73;;;;;;;5.46;89.69;101286.72;1723538;82;21288;-74
2020/12/19 01:01:16;;;;;;;77.78;43.20;;;;;;;5.45;89.51;101285.03;1713591;82;21398;-74
2020/12/19 01:03:42;;;;;;;71.33;40.80;;;;;;;5.44;89.24;101280.71;1716465;82;21777;-76
2020/12/19 01:06:08;;;;;;;77.35;42.67;;;;;;;5.38;89.04;101264.45;1727113;82;27231;-74
2020/12/19 01:08:34;;;;;;;78.35;43.05;;;;;;;5.33;88.98;101267.83;1718816;81;21886;-74
2020/12/19 01:10:59;;;;;;;78.97;43.28;;;;;;;5.25;89.16;101271.84;1715659;82;27397;-74
2020/12/19 01:13:25;;;;;;;72.87;40.88;;;;;;;5.22;89.17;101261.11;1710622;82;25305;-74
2020/12/19 01:15:51;;;;;;;82.05;44.77;;;;;;;5.20;89.22;101265.58;1712920;82;28456;-74
2020/12/19 01:18:19;;;;;;;78.12;42.80;;;;;;;5.20;89.16;101262.96;1738481;81;26781;-74
2020/12/19 01:20:44;;;;;;;;;;;;;;;5.20;88.99;101262.52;1745695;81;21344;-74
2020/12/19 01:23:10;;;;;;;71.92;41.18;;;;;;;5.10;88.97;101269.71;1745064;81;20208;-74
2020/12/19 01:25:36;;;;;;;75.22;42.17;;;;;;;4.92;89.52;101275.09;1745395;81;25367;-74
2020/12/19 01:28:01;;;;;;;79.35;44.10;;;;;;;4.83;89.93;101267.80;1738877;81;28330;-74
2020/12/19 01:30:27;;;;;;;81.15;42.33;;;;;;;4.67;90.27;101268.70;1750840;81;26811;-74
2020/12/19 01:32:53;;;;;;;75.25;42.20;;;;;;;4.66;90.43;101265.73;1745867;81;21835;-74
2020/12/19 01:35:19;;;;;;;73.55;41.73;;;;;;;4.54;90.74;101267.75;1748967;81;21176;-75
2020/12/19 01:37:45;;;;;;;79.45;43.92;;;;;;;4.46;91.16;101267.37;1740876;81;25453;-75
2020/12/19 01:40:11;;;;;;;74.58;42.27;;;;;;;4.36;91.78;101267.03;1749874;81;28333;-75
2020/12/19 01:42:36;;;;;;;82.95;44.25;;;;;;;4.35;91.74;101264.50;1752044;81;26805;-75
2020/12/19 01:45:04;;;;;;;79.05;42.08;;;;;;;4.22;92.06;101263.91;1748837;81;21886;-75
2020/12/19 01:47:29;;;;;;;91.53;44.93;;;;;;;4.15;92.36;101263.89;1747653;81;21228;-75
2020/12/19 01:49:55;;;;;;;80.03;44.97;;;;;;;4.10;92.79;101260.67;1750617;81;24748;-75
2020/12/19 01:52:22;;;;;;;77.12;42.85;;;;;;;4.06;92.84;101264.41;1741911;81;28326;-75
2020/12/19 01:54:48;;;;;;;90.28;43.90;;;;;;;4.10;92.80;101258.06;1715629;81;21150;-76
2020/12/19 01:57:14;;;;;;;82.57;44.25;;;;;;;4.19;92.43;101254.09;1730282;82;21207;-75
2020/12/19 01:59:40;;;;;;;77.37;41.77;;;;;;;4.24;92.08;101254.22;1720946;82;26833;-75
2020/12/19 02:02:08;;;;;;;76.30;43.13;;;;;;;4.27;91.51;101257.97;1733120;81;23676;-75
2020/12/19 02:04:34;;;;;;;77.45;42.17;;;;;;;4.33;91.30;101253.30;1742539;79;21202;-75
2020/12/19 02:07:02;;;;;;;80.87;43.92;;;;;;;4.33;90.99;101255.44;1737660;81;21060;-75
2020/12/19 02:09:30;;;;;;;74.45;41.48;;;;;;;4.34;90.80;101247.16;1748833;81;22013;-75
2020/12/19 02:11:56;;;;;;;75.37;40.75;;;;;;;4.37;90.52;101250.42;1742185;81;21182;-75
2020/12/19 02:14:22;;;;;;;82.08;43.90;;;;;;;4.41;90.33;101251.08;1736349;81;21168;-75
2020/12/19 02:16:59;;;;;;;75.20;42.08;;;;;;;4.31;90.19;101252.91;1737302;81;28530;-75
2020/12/19 02:19:26;;;;;;;;;;;;;;;4.31;90.25;101254.22;1736593;81;21124;-75
2020/12/19 02:21:52;;;;;;;77.70;37.47;;;;;;;4.33;90.02;101255.92;1747448;81;21964;-75
2020/12/19 02:24:18;;;;;;;72.62;38.63;;;;;;;4.33;89.94;101259.84;1738178;81;22388;-75
2020/12/19 02:26:49;;;;;;;76.37;42.57;;;;;;;4.31;89.82;101252.91;1742253;81;25837;-75
2020/12/19 02:29:15;;;;;;;83.92;42.08;;;;;;;4.22;89.80;101248.22;1740583;81;21186;-75
2020/12/19 02:31:42;;;;;;;71.70;40.58;;;;;;;4.25;89.93;101253.27;1710491;81;26781;-75
2020/12/19 02:34:08;;;;;;;58.43;30.63;;;;;;;4.30;89.58;101251.25;1752163;81;21336;-74
2020/12/19 02:36:35;;;;;;;80.67;40.80;;;;;;;4.32;89.33;101244.63;1748164;81;26836;-74
2020/12/19 02:39:00;;;;;;;79.72;41.48;;;;;;;4.30;89.21;101253.87;1746901;81;21780;-74
2020/12/19 02:41:26;;;;;;;72.92;42.25;;;;;;;4.21;89.21;101255.70;1738470;81;28389;-74
2020/12/19 02:43:54;;;;;;;77.10;42.48;;;;;;;4.09;89.63;101249.39;1738372;81;26855;-74
2020/12/19 02:46:20;;;;;;;77.25;42.20;;;;;;;4.07;89.73;101250.39;1741638;81;21329;-74
2020/12/19 02:48:45;;;;;;;82.22;41.25;;;;;;;4.04;89.81;101259.71;1735072;81;21141;-75
2020/12/19 02:51:11;;;;;;;73.60;41.10;;;;;;;3.95;90.11;101259.31;1744739;81;24104;-74
2020/12/19 02:53:37;;;;;;;76.50;41.02;;;;;;;3.86;90.58;101263.74;1742340;81;28398;-75
2020/12/19 02:56:03;;;;;;;79.67;41.02;;;;;;;3.84;90.79;101261.69;1745904;81;26766;-74
2020/12/19 02:58:29;;;;;;;76.80;40.60;;;;;;;3.86;90.70;101266.36;1748680;81;21303;-75
2020/12/19 03:00:54;;;;;;;78.92;40.75;;;;;;;3.71;91.20;101257.62;1738274;81;26770;-74
2020/12/19 03:03:20;;;;;;;86.37;39.43;;;;;;;3.69;91.33;101258.62;1745681;81;25715;-75
2020/12/19 03:05:46;;;;;;;88.17;43.20;;;;;;;3.64;91.56;101261.48;1734726;81;28331;-75
2020/12/19 03:08:11;;;;;;;74.95;40.60;;;;;;;3.53;92.09;101259.45;1737196;81;26690;-74
2020/12/19 03:10:37;;;;;;;80.25;41.65;;;;;;;3.53;92.13;101254.23;1731493;81;21809;-75
2020/12/19 03:13:03;;;;;;;78.65;40.33;;;;;;;3.54;92.14;101252.45;1757827;81;25229;-74
2020/12/19 03:15:29;;;;;;;82.30;40.33;;;;;;;3.59;91.74;101251.75;1750783;81;24639;-74
2020/12/19 03:17:54;;;;;;;77.70;41.10;;;;;;;3.62;91.30;101248.11;1748902;81;28281;-75
2020/12/19 03:20:20;;;;;;;79.55;40.52;;;;;;;3.68;91.11;101251.25;1751048;81;27548;-75
2020/12/19 03:22:46;;;;;;;80.38;40.12;;;;;;;3.72;90.68;101253.22;1750786;81;22243;-74
2020/12/19 03:25:11;;;;;;;80.00;38.87;;;;;;;3.79;90.47;101251.94;1740111;81;26203;-75
2020/12/19 03:27:37;;;;;;;73.23;38.77;;;;;;;3.85;90.16;101253.38;1750040;81;23886;-75
2020/12/19 03:30:04;;;;;;;70.62;39.48;;;;;;;3.86;89.80;101250.67;1754057;81;28402;-75
2020/12/19 03:32:30;;;;;;;82.82;38.75;;;;;;;3.87;89.42;101244.53;1748076;81;21209;-74
2020/12/19 03:34:55;;;;;;;77.42;38.98;;;;;;;3.88;89.26;101251.42;1744818;81;21967;-75
2020/12/19 03:37:21;;;;;;;73.40;39.70;;;;;;;3.87;89.05;101250.20;1746455;81;26545;-75
2020/12/19 03:39:47;;;;;;;81.63;38.57;;;;;;;3.85;88.86;101250.29;1754222;80;24749;-75
2020/12/19 03:42:12;;;;;;;77.27;39.55;;;;;;;3.78;88.60;101245.05;1754018;81;28711;-75
2020/12/19 03:44:38;;;;;;;78.15;39.65;;;;;;;3.79;88.63;101242.80;1752430;81;26729;-75
2020/12/19 03:47:04;;;;;;;79.75;38.25;;;;;;;3.82;88.65;101241.31;1751650;81;21269;-75
2020/12/19 03:49:30;;;;;;;75.67;39.00;;;;;;;3.84;88.58;101237.31;1747712;81;25649;-75
2020/12/19 03:51:55;;;;;;;76.03;37.10;;;;;;;3.84;88.23;101236.87;1755422;79;23689;-75
2020/12/19 03:54:21;;;;;;;69.70;34.83;;;;;;;3.84;87.90;101236.00;1748719;81;28306;-75
2020/12/19 03:56:47;;;;;;;67.80;36.53;;;;;;;3.86;87.74;101233.69;1754805;81;26584;-75
2020/12/19 03:59:12;;;;;;;80.75;38.48;;;;;;;3.83;87.42;101231.25;1752138;81;21415;-75
2020/12/19 04:01:38;;;;;;;74.22;36.60;;;;;;;3.83;87.43;101224.72;1743227;81;26432;-75
2020/12/19 04:04:04;;;;;;;69.53;37.03;;;;;;;3.84;87.22;101227.72;1747197;81;24045;-75
2020/12/19 04:06:30;;;;;;;71.70;37.23;;;;;;;3.79;86.70;101223.20;1753327;79;21197;-75
2020/12/19 04:08:56;;;;;;;74.90;37.25;;;;;;;3.75;86.83;101224.31;1751045;81;27219;-75
2020/12/19 04:11:22;;;;;;;68.65;35.52;;;;;;;3.75;86.84;101221.70;1742131;81;21648;-74
2020/12/19 04:13:48;;;;;;;70.07;36.53;;;;;;;3.76;86.71;101216.87;1746267;81;25650;-75
2020/12/19 04:16:14;;;;;;;75.97;35.23;;;;;;;3.70;86.25;101208.06;1754768;81;24234;-75
2020/12/19 04:18:39;;;;;;;66.75;36.58;;;;;;;3.68;85.85;101214.68;1745659;81;28901;-75
2020/12/19 04:21:07;;;;;;;75.17;36.38;;;;;;;3.65;85.78;101213.55;1760060;81;26699;-75
2020/12/19 04:23:35;;;;;;;70.92;34.78;;;;;;;3.60;85.44;101211.62;1762098;81;21344;-76
2020/12/19 04:26:02;;;;;;;69.32;34.30;;;;;;;3.49;85.21;101216.14;1761133;80;21224;-74
2020/12/19 04:28:28;;;;;;;77.75;36.58;;;;;;;3.38;85.73;101213.28;1752352;81;21050;-75
2020/12/19 04:30:54;;;;;;;76.10;36.05;;;;;;;3.22;85.93;101214.11;1761312;81;21138;-74
2020/12/19 04:33:19;;;;;;;71.57;35.80;;;;;;;3.14;86.19;101212.81;1758759;81;27307;-74
2020/12/19 04:35:45;;;;;;;80.12;36.58;;;;;;;3.22;86.56;101219.33;1762039;81;21885;-74
2020/12/19 04:38:11;;;;;;;67.77;36.20;;;;;;;3.28;86.37;101218.16;1762107;81;26182;-74
2020/12/19 04:40:37;;;;;;;70.20;34.60;;;;;;;3.27;86.18;101215.16;1761552;81;24758;-74
2020/12/19 04:43:17;;;;;;;68.17;35.50;;;;;;;3.33;86.24;101220.53;1753503;81;21148;-74
2020/12/19 04:45:47;;;;;;;73.40;35.78;;;;;;;3.31;85.92;101210.61;1753321;81;21153;-75
2020/12/19 04:48:19;;;;;;;73.78;35.20;;;;;;;3.30;85.81;101212.86;1752619;81;22337;-75
2020/12/19 04:50:46;;;;;;;75.85;35.48;;;;;;;3.30;85.74;101214.16;1758936;81;21606;-75
2020/12/19 04:53:18;;;;;;;74.60;36.40;;;;;;;3.32;85.79;101209.22;1762257;81;21193;-74
2020/12/19 04:55:44;;;;;;;73.57;35.25;;;;;;;3.27;85.81;101208.64;1751421;81;21190;-74
2020/12/19 04:58:20;;;;;;;73.87;35.98;;;;;;;3.30;85.84;101212.86;1751967;81;27226;-75
2020/12/19 05:00:47;;;;;;;72.08;36.08;;;;;;;3.32;85.85;101217.53;1758407;81;21279;-76
2020/12/19 05:03:13;;;;;;;70.87;34.85;;;;;;;3.34;85.90;101216.53;1761974;81;21197;-75
2020/12/19 05:05:45;;;;;;;70.97;35.48;;;;;;;3.35;85.79;101209.53;1761152;81;21261;-75
2020/12/19 05:08:11;;;;;;;67.00;33.85;;;;;;;3.36;85.74;101212.53;1756610;81;21219;-74
2020/12/19 05:10:38;;;;;;;75.17;32.83;;;;;;;3.37;85.66;101216.36;1751504;81;26334;-74
2020/12/19 05:13:04;;;;;;;69.97;32.77;;;;;;;3.31;85.60;101214.52;1754724;81;21205;-74
2020/12/19 05:15:29;;;;;;;67.10;32.77;;;;;;;3.31;85.60;101208.86;1759666;81;25358;-74
2020/12/19 05:17:57;;;;;;;72.57;33.27;;;;;;;3.33;85.67;101207.47;1761574;81;24811;-74
2020/12/19 05:20:24;;;;;;;67.10;33.25;;;;;;;3.35;85.70;101208.22;1752455;81;21178;-74
2020/12/19 05:22:50;;;;;;;66.30;31.70;;;;;;;3.34;85.63;101206.52;1761778;81;21184;-74
2020/12/19 05:25:19;;;;;;;73.47;35.13;;;;;;;3.34;85.54;101211.75;1755805;81;21266;-77
2020/12/19 05:27:45;;;;;;;74.25;34.50;;;;;;;3.29;85.62;101203.33;1755249;81;21188;-75
2020/12/19 05:30:12;;;;;;;65.33;33.30;;;;;;;3.35;85.59;101208.22;1752970;81;24219;-75
2020/12/19 05:32:51;;;;;;;69.07;31.62;;;;;;;3.34;85.58;101206.52;1760114;81;21118;-74
2020/12/19 05:35:20;;;;;;;66.77;33.45;;;;;;;3.35;85.59;101213.44;1761246;81;21181;-74
2020/12/19 05:38:03;;;;;;;70.62;33.45;;;;;;;3.38;85.67;101211.50;1761781;81;21362;-74
2020/12/19 05:40:29;;;;;;;71.30;33.55;;;;;;;3.41;85.55;101211.80;1754658;81;21207;-75
2020/12/19 05:42:56;;;;;;;69.00;31.37;;;;;;;3.41;85.44;101211.80;1759489;81;21206;-75
2020/12/19 05:45:23;;;;;;;66.92;34.10;;;;;;;3.34;85.29;101215.22;1758171;81;22275;-74
2020/12/19 05:47:48;;;;;;;74.45;34.50;;;;;;;3.16;85.91;101215.73;1752929;81;21209;-75
2020/12/19 05:50:15;;;;;;;70.25;35.13;;;;;;;3.13;86.48;101212.45;1756076;81;21950;-75
2020/12/19 05:52:41;;;;;;;78.00;35.17;;;;;;;3.12;86.81;101214.67;1762315;81;21193;-75
2020/12/19 05:55:11;;;;;;;74.07;34.90;;;;;;;3.14;86.77;101215.42;1752661;80;21208;-75
2020/12/19 05:57:37;;;;;;;68.87;33.98;;;;;;;3.21;86.84;101208.97;1757742;81;21609;-75
2020/12/19 06:00:12;;;;;;;69.80;32.90;;;;;;;3.20;86.39;101210.74;1760096;81;21186;-75
2020/12/19 06:02:38;;;;;;;69.32;34.83;;;;;;;3.26;86.42;101208.72;1761239;81;21236;-75
2020/12/19 06:05:06;;;;;;;80.90;36.58;;;;;;;3.29;86.18;101203.33;1753070;81;26528;-75
2020/12/19 06:07:39;;;;;;;74.03;35.00;;;;;;;3.34;85.97;101203.91;1762213;81;21725;-75
2020/12/19 06:10:13;;;;;;;74.22;36.05;;;;;;;3.36;85.69;101202.09;1762392;81;21209;-75
2020/12/19 06:13:01;;;;;;;73.85;34.48;;;;;;;3.35;85.46;101208.22;1757668;81;21173;-75
2020/12/19 06:15:51;;;;;;;77.32;35.68;;;;;;;3.30;85.41;101196.72;1757386;81;21194;-75
2020/12/19 06:18:50;;;;;;;66.10;32.25;;;;;;;3.30;85.34;101203.25;1752633;81;21189;-76
2020/12/19 06:21:16;;;;;;;69.20;33.73;;;;;;;3.24;85.33;101213.55;1749626;81;21198;-75
2020/12/19 06:23:41;;;;;;;68.28;32.83;;;;;;;3.24;85.21;101210.94;1753859;81;28895;-76
2020/12/19 06:26:08;;;;;;;71.10;33.88;;;;;;;3.29;85.27;101213.77;1748124;81;27203;-75
2020/12/19 06:28:44;;;;;;;69.05;31.23;;;;;;;3.30;85.09;101205.03;1743835;81;22080;-75
2020/12/19 06:31:17;;;;;;;70.17;33.25;;;;;;;3.29;85.04;101203.33;1753444;81;21148;-75
2020/12/19 06:33:52;;;;;;;72.12;32.63;;;;;;;3.26;84.73;101209.55;1748073;81;21203;-75
2020/12/19 06:36:27;;;;;;;65.85;32.90;;;;;;;3.16;84.84;101217.52;1745078;81;21146;-75
2020/12/19 06:38:58;;;;;;;69.95;31.85;;;;;;;3.14;84.79;101214.13;1757515;81;21193;-75
2020/12/19 06:41:45;;;;;;;67.95;32.55;;;;;;;3.13;84.74;101208.55;1745769;81;21847;-75
2020/12/19 06:44:32;;;;;;;62.17;31.55;;;;;;;3.11;84.67;101213.84;1747543;81;21210;-74
2020/12/19 06:47:01;;;;;;;59.98;27.73;;;;;;;3.13;84.62;101213.29;1745541;81;21622;-76
2020/12/19 06:49:31;;;;;;;70.37;32.83;;;;;;;3.12;84.58;101212.90;1742690;81;21204;-76
2020/12/19 06:52:02;;;;;;;63.65;33.60;;;;;;;3.06;84.57;101215.83;1741377;81;21150;-76
2020/12/19 06:54:41;;;;;;;61.45;30.82;;;;;;;3.08;84.66;101220.97;1750020;81;21219;-76
2020/12/19 06:57:30;;;;;;;65.15;31.90;;;;;;;3.09;84.64;101226.11;1752085;81;20952;-74
2020/12/19 07:00:17;;;;;;;59.75;28.50;;;;;;;3.11;84.52;101230.80;1747100;81;21182;-75
2020/12/19 07:02:53;;;;;;;66.22;29.75;;;;;;;3.05;84.17;101230.66;1643398;85;21256;-75
2020/12/19 07:05:28;;;;;;;61.25;29.82;;;;;;;3.04;84.20;101233.34;1719924;81;21544;-75
2020/12/19 07:07:56;;;;;;;60.28;29.05;;;;;;;2.97;86.27;101234.61;1746712;81;21198;-75
2020/12/19 07:10:33;;;;;;;63.58;32.50;;;;;;;2.96;84.90;101240.74;1750162;81;21585;-75
2020/12/19 07:12:59;;;;;;;;;;;;;;;2.83;84.80;101251.81;1761264;81;21616;-75
2020/12/19 07:15:44;;;;;;;57.10;27.67;;;;;;;2.70;85.50;101250.74;1739821;81;20208;-75
2020/12/19 07:18:33;;;;;;;62.15;29.45;;;;;;;2.81;85.73;101248.45;1748800;81;21182;-76
2020/12/19 07:21:09;;;;;;;65.62;30.55;;;;;;;2.89;85.50;101254.58;1750044;81;21397;-74
2020/12/19 07:23:37;;;;;;;66.05;31.42;;;;;;;2.98;85.17;101253.23;1741693;81;21224;-74
2020/12/19 07:26:03;;;;;;;;;;;;;;;3.01;84.85;101259.60;1749347;81;21200;-75
2020/12/19 07:28:28;;;;;;;67.60;31.57;;;;;;;3.01;84.38;101253.08;1747657;81;28985;-75
2020/12/19 07:30:54;;;;;;;69.37;33.10;;;;;;;3.06;84.43;101252.37;1747356;81;26817;-75
2020/12/19 07:33:20;;;;;;;70.33;33.93;;;;;;;3.13;84.46;101254.22;1741525;81;22261;-75
2020/12/19 07:35:46;;;;;;;67.60;35.03;;;;;;;3.14;84.20;101255.44;1740555;81;25431;-76
2020/12/19 07:38:11;;;;;;;69.93;35.37;;;;;;;3.14;84.20;101254.14;1738550;81;24716;-76
2020/12/19 07:40:37;;;;;;;71.65;35.48;;;;;;;3.17;84.26;101254.41;1745327;81;28486;-75
2020/12/19 07:43:10;;;;;;;64.92;34.13;;;;;;;3.13;84.23;101248.52;1759256;81;26744;-75
2020/12/19 07:45:37;;;;;;;73.07;34.78;;;;;;;3.09;84.20;101246.98;1753856;81;21415;-75
2020/12/19 07:48:04;;;;;;;;;;;;;;;3.15;84.27;101249.27;1750741;81;21168;-75
2020/12/19 07:50:33;;;;;;;64.37;32.00;;;;;;;3.16;84.27;101247.53;1735348;81;20671;-75
2020/12/19 07:53:02;;;;;;;73.28;36.42;;;;;;;3.24;84.35;101242.27;1746641;81;21179;-75
2020/12/19 07:55:28;;;;;;;71.95;35.15;;;;;;;3.24;84.11;101246.18;1748185;81;21594;-74
2020/12/19 07:57:57;;;;;;;72.53;36.35;;;;;;;3.29;84.17;101246.41;1749270;81;21667;-75
2020/12/19 08:00:25;;;;;;;71.92;36.25;;;;;;;3.31;84.29;101252.38;1739136;81;21672;-75
2020/12/19 08:02:51;;;;;;;74.15;36.65;;;;;;;3.36;84.30;101249.08;1757157;81;21176;-76
2020/12/19 08:05:17;;;;;;;70.60;36.73;;;;;;;3.31;84.09;101248.46;1744322;81;28459;-75
2020/12/19 08:07:43;;;;;;;77.08;38.63;;;;;;;3.34;84.39;101250.91;1737464;81;25489;-76
2020/12/19 08:10:10;;;;;;;72.13;37.00;;;;;;;3.38;84.35;101251.14;1750351;80;21070;-75
2020/12/19 08:12:36;;;;;;;;;;;;;;;3.32;84.35;101248.85;1752229;81;21177;-76
2020/12/19 08:15:27;;;;;;;73.63;36.10;;;;;;;3.36;84.20;101247.30;1742248;81;22823;-76
2020/12/19 08:18:02;;;;;;;72.12;34.38;;;;;;;3.35;84.27;101246.08;1742220;81;21169;-76
2020/12/19 08:20:31;;;;;;;81.15;38.25;;;;;;;3.43;84.75;101249.58;1752204;81;21603;-75
2020/12/19 08:22:58;;;;;;;77.27;38.15;;;;;;;3.40;84.26;101244.92;1736179;81;21327;-75
2020/12/19 08:25:23;;;;;;;79.27;38.15;;;;;;;3.49;84.25;101247.47;1744192;81;21604;-75
2020/12/19 08:27:51;;;;;;;73.63;37.93;;;;;;;3.52;84.38;101247.31;1745111;81;21029;-75
2020/12/19 08:30:29;;;;;;;83.20;39.35;;;;;;;3.39;84.72;101243.70;1747521;81;27495;-75
2020/12/19 08:33:03;;;;;;;83.05;39.65;;;;;;;3.34;84.79;101249.16;1747945;81;21194;-75
2020/12/19 08:35:42;;;;;;;80.12;40.45;;;;;;;3.40;84.62;101249.27;1740114;81;21303;-77
2020/12/19 08:38:26;;;;;;;76.62;38.80;;;;;;;3.42;84.63;101250.05;1748375;81;21175;-75
2020/12/19 08:40:55;;;;;;;75.83;36.77;;;;;;;3.50;84.53;101247.86;1738513;81;21178;-75
2020/12/19 08:43:23;;;;;;;69.45;37.28;;;;;;;3.57;84.19;101252.28;1737056;81;21736;-75
2020/12/19 08:45:51;;;;;;;78.80;36.93;;;;;;;3.58;83.85;101247.45;1685893;81;21516;-76
2020/12/19 08:48:20;;;;;;;70.90;38.73;;;;;;;3.61;83.81;101249.06;1737331;81;21156;-75
2020/12/19 08:50:47;;;;;;;71.57;35.48;;;;;;;3.65;83.79;101242.72;1749947;81;21199;-75
2020/12/19 08:53:21;;;;;;;74.05;33.38;;;;;;;3.73;83.81;101249.70;1738595;81;21610;-75
2020/12/19 08:55:48;;;;;;;67.27;34.98;;;;;;;3.65;83.75;101241.41;1723383;82;21117;-77
2020/12/19 08:58:31;;;;;;;71.00;33.25;;;;;;;3.70;83.93;101241.55;1745703;81;21172;-75
2020/12/19 09:00:59;;;;;;;64.85;34.18;;;;;;;3.69;83.65;101232.49;1738056;81;21231;-74
2020/12/19 09:03:30;;;;;;;68.10;36.68;;;;;;;3.72;83.56;101232.32;1741706;81;21131;-75
2020/12/19 09:06:02;;;;;;;66.10;33.88;;;;;;;3.73;83.47;101235.33;1749651;80;21227;-74
2020/12/19 09:08:36;;;;;;;65.20;31.80;;;;;;;3.77;83.42;101231.59;1743113;81;21191;-74
2020/12/19 09:11:03;;;;;;;63.90;34.75;;;;;;;3.72;83.36;101225.79;1746173;81;21191;-75
2020/12/19 09:13:29;;;;;;;67.17;32.75;;;;;;;3.74;83.48;101236.55;1733988;81;21704;-74
2020/12/19 09:15:57;;;;;;;62.87;33.43;;;;;;;3.69;83.58;101235.11;1749093;81;25761;-74
2020/12/19 09:18:28;;;;;;;;;;;;;;;3.64;83.81;101228.00;1735744;81;21087;-74
2020/12/19 09:20:56;;;;;;;64.42;29.92;;;;;;;3.48;84.04;101226.22;1750173;81;20257;-76
2020/12/19 09:23:24;;;;;;;65.12;32.67;;;;;;;3.45;84.58;101226.39;1741367;81;21186;-76
2020/12/19 09:25:50;;;;;;;61.58;28.73;;;;;;;3.44;84.68;101223.39;1746002;81;21217;-75
2020/12/19 09:28:15;;;;;;;58.43;32.07;;;;;;;3.45;84.72;101229.45;1738634;81;21041;-76
2020/12/19 09:30:41;;;;;;;66.10;31.05;;;;;;;3.26;84.99;101225.69;1751460;81;24368;-76
2020/12/19 09:33:07;;;;;;;59.53;31.35;;;;;;;3.12;85.55;101225.95;1740183;81;28949;-75
2020/12/19 09:35:33;;;;;;;57.00;29.35;;;;;;;3.16;85.71;101227.48;1748533;81;27278;-75
2020/12/19 09:37:58;;;;;;;58.47;29.40;;;;;;;3.18;85.54;101230.84;1744486;80;23284;-74
2020/12/19 09:40:25;;;;;;;61.83;30.77;;;;;;;3.22;85.38;101227.16;1743538;81;24988;-75
2020/12/19 09:42:50;;;;;;;53.17;29.37;;;;;;;3.26;85.53;101221.77;1752781;81;21351;-77
2020/12/19 09:45:16;;;;;;;59.45;26.80;;;;;;;3.29;85.55;101222.91;1739557;80;28371;-74
2020/12/19 09:47:42;;;;;;;56.45;29.67;;;;;;;3.34;85.58;101226.11;1749521;81;26758;-75
2020/12/19 09:50:09;;;;;;;57.17;29.70;;;;;;;3.35;85.37;101226.50;1746982;81;21810;-74
2020/12/19 09:52:36;;;;;;;50.92;25.72;;;;;;;3.15;85.67;101231.00;1744177;81;21610;-75
2020/12/19 09:55:08;;;;;;;58.48;28.20;;;;;;;3.01;86.25;101226.52;1738489;81;21109;-76
2020/12/19 09:57:34;;;;;;;57.45;27.55;;;;;;;3.11;86.71;101229.50;1739923;81;21087;-75
2020/12/19 10:00:00;;;;;;;54.18;27.30;;;;;;;3.13;86.12;101232.86;1743775;81;26472;-75
2020/12/19 10:02:25;;;;;;;57.17;27.07;;;;;;;3.16;85.90;101234.01;1748498;81;21339;-76
2020/12/19 10:04:51;;;;;;;51.57;28.23;;;;;;;3.29;85.84;101230.74;1745801;80;23508;-75
2020/12/19 10:07:17;;;;;;;55.53;27.43;;;;;;;3.37;85.59;101233.77;1746003;81;22727;-75
2020/12/19 10:09:43;;;;;;;54.05;27.13;;;;;;;3.33;85.34;101232.27;1744934;81;28426;-78
2020/12/19 10:12:08;;;;;;;51.45;28.42;;;;;;;3.38;85.22;101233.69;1743406;81;27039;-79
2020/12/19 10:14:34;;;;;;;50.60;27.05;;;;;;;3.44;85.13;101231.22;1748011;81;21868;-76
2020/12/19 10:17:00;;;;;;;52.07;25.90;;;;;;;3.42;84.80;101233.08;1735991;81;25493;-76
2020/12/19 10:19:25;;;;;;;49.13;26.53;;;;;;;3.43;84.79;101232.14;1752505;81;25690;-77
2020/12/19 10:21:51;;;;;;;48.45;24.90;;;;;;;3.31;84.73;101228.44;1723936;81;28409;-76
2020/12/19 10:24:17;;;;;;;51.15;26.37;;;;;;;3.32;84.98;101223.58;1713674;82;26700;-76
2020/12/19 10:26:48;;;;;;;48.58;27.07;;;;;;;3.43;84.92;101228.70;1711085;83;21960;-76
2020/12/19 10:29:14;;;;;;;52.03;25.85;;;;;;;3.35;84.92;101222.58;1709276;82;21225;-78
2020/12/19 10:31:40;;;;;;;51.05;26.30;;;;;;;3.45;85.01;101224.22;1724747;81;21216;-77
2020/12/19 10:34:05;;;;;;;46.80;27.00;;;;;;;3.39;84.84;101218.89;1712288;82;29794;-78
2020/12/19 10:36:31;;;;;;;48.20;24.18;;;;;;;3.49;84.88;101216.61;1721790;82;28154;-77
2020/12/19 10:38:58;;;;;;;46.18;26.00;;;;;;;3.43;84.61;101216.47;1712233;82;22131;-76
2020/12/19 10:41:24;;;;;;;45.83;25.02;;;;;;;3.45;84.63;101219.86;1729036;82;21156;-76
2020/12/19 10:43:49;;;;;;;52.53;26.63;;;;;;;3.36;84.81;101209.92;1710212;83;24657;-76
2020/12/19 10:46:27;;;;;;;47.73;26.65;;;;;;;3.42;85.06;101209.59;1713999;82;28353;-76
2020/12/19 10:48:53;;;;;;;54.65;26.23;;;;;;;3.48;85.18;101217.08;1721074;82;21365;-77
2020/12/19 10:51:28;;;;;;;44.98;26.50;;;;;;;3.62;85.10;101216.77;1718844;82;21262;-77
2020/12/19 10:53:55;;;;;;;50.58;25.55;;;;;;;3.72;84.95;101221.88;1714722;82;21631;-76
2020/12/19 10:56:22;;;;;;;45.28;24.82;;;;;;;3.79;84.56;101224.50;1717725;82;21236;-75
2020/12/19 10:58:48;;;;;;;43.50;22.80;;;;;;;3.75;84.27;101226.93;1715672;82;21215;-77
2020/12/19 11:01:13;;;;;;;44.05;24.05;;;;;;;3.70;83.86;101228.97;1710692;82;26603;-76
2020/12/19 11:03:43;;;;;;;44.20;22.75;;;;;;;3.67;84.09;101225.22;1713406;82;21978;-76
2020/12/19 11:06:24;;;;;;;43.28;23.22;;;;;;;3.66;84.19;101224.83;1709043;82;21224;-76
2020/12/19 11:08:49;;;;;;;39.33;22.35;;;;;;;3.71;84.05;101220.18;1709195;82;21172;-75
2020/12/19 11:11:17;;;;;;;46.45;23.60;;;;;;;3.65;83.87;101213.98;1724965;82;28349;-75
2020/12/19 11:13:44;;;;;;;44.42;23.27;;;;;;;3.48;84.22;101214.91;1704962;82;26929;-76
2020/12/19 11:16:10;;;;;;;47.78;23.47;;;;;;;3.44;84.68;101207.72;1718319;82;21343;-77
2020/12/19 11:18:36;;;;;;;39.63;23.62;;;;;;;3.47;85.21;101202.33;1711762;82;21191;-77
2020/12/19 11:21:05;;;;;;;40.43;21.73;;;;;;;3.57;85.02;101203.52;1727578;81;25681;-76
2020/12/19 11:23:30;;;;;;;45.92;23.18;;;;;;;3.59;84.85;101195.12;1747753;81;21301;-77